• Join FlightAware (Why Join?)
  • Login
  • US Flag 
03:56AM EDT


 

Airport Tracker/Info


-or-


 

Live Flight TrackerFlight Track Log ✈ N789EP ✈ 15-Jun-2013 ✈ KMTN - KMTN

Flight Track Log - Related Links

Times and Time Zones

All times are in EDT time to prevent confusion due to time zone crossing. See the N789EP flight status page for this flight to view local times or setup timezone preferences in your user account.

Time Position Orientation Groundspeed Altitude Reporting Facility
EDT Latitude Longitude Course Direction KTS MPH feet Rate Location/Type
03:08PM 39.3333 -76.4333 142° Southeast 85 98 900  Level Potomac TRACON
03:09PM 39.3000 -76.4167 159° South 106 122 1,400 540 Climbing Potomac TRACON
03:10PM 39.3000 -76.4000 90° East 96 110 2,000 660 Climbing Potomac TRACON
03:11PM 39.2833 -76.3667 123° Southeast 93 107 2,800 660 Climbing Potomac TRACON
03:12PM 39.2667 -76.3500 142° Southeast 90 104 3,400 720 Climbing Potomac TRACON
03:13PM 39.2500 -76.3167 123° Southeast 88 101 4,200 720 Climbing Potomac TRACON
03:14PM 39.3257 -76.4138 142° Southeast  Level Estimated
03:14PM 39.2333 -76.3000 142° Southeast 85 98 4,800  Level Potomac TRACON
03:15PM 39.2167 -76.2833 142° Southeast 106 122 5,100 60 Climbing Potomac TRACON
03:16PM 39.1833 -76.2667 159° South 126 145 5,000 -60 Descending Potomac TRACON
03:17PM 39.1500 -76.2333 142° Southeast 122 140 5,000 -60 Level Potomac TRACON
03:18PM 39.1167 -76.2167 159° South 125 144 4,900  Descending Potomac TRACON
03:19PM 39.1000 -76.1833 123° Southeast 125 144 5,000  Climbing Potomac TRACON
03:20PM 39.0850 -76.1772 162° South 125 144 4,900  Descending Washington Center
03:21PM 39.0475 -76.1394 142° Southeast 122 140 5,000  Climbing Washington Center
03:22PM 39.0186 -76.1181 150° Southeast 123 142 5,000  Level Washington Center
03:23PM 38.9894 -76.1017 156° South 121 139 5,100  Climbing Washington Center
03:24PM 38.9603 -76.0775 147° Southeast 118 136 5,000 120 Descending Washington Center
03:25PM 38.9353 -76.0481 138° Southeast 106 122 5,400 360 Climbing Washington Center
03:26PM 38.9106 -76.0211 140° Southeast 108 124 5,800 420 Climbing Washington Center
03:27PM 38.8875 -75.9969 141° Southeast 115 132 6,300 420 Climbing Washington Center
03:28PM 38.8544 -75.9728 150° Southeast 120 138 6,700 360 Climbing Washington Center
03:29PM 38.8231 -75.9514 152° Southeast 123 142 7,100 120 Climbing Washington Center
03:30PM 38.7939 -75.9247 145° Southeast 135 155 7,000 -180 Descending Washington Center
03:31PM 38.7669 -75.9006 145° Southeast 137 158 6,800  Descending Washington Center
03:32PM 38.7400 -75.8764 145° Southeast 131 151 7,000  Climbing Washington Center
03:33PM 38.7025 -75.8364 140° Southeast 131 151 6,900  Descending Washington Center
03:34PM 38.6775 -75.8069 137° Southeast 131 151 7,000  Climbing Washington Center
03:35PM 38.6442 -75.7803 148° Southeast 128 147 7,000 -60 Level Washington Center
03:36PM 38.6214 -75.7617 147° Southeast 131 151 6,900  Descending Washington Center
03:37PM 38.5881 -75.7325 146° Southeast 128 147 7,000  Climbing Washington Center
03:38PM 38.5631 -75.6978 133° Southeast 132 152 7,000 -60 Level Washington Center
03:39PM 38.5381 -75.6633 133° Southeast 135 155 6,900 -60 Descending Washington Center
03:40PM 38.5108 -75.6314 137° Southeast 136 157 6,900  Level Washington Center
03:41PM 38.4881 -75.5969 130° Southeast 132 152 6,900 -240 Level Washington Center
03:43PM 38.4547 -75.5544 135° Southeast 132 152 6,400 -780 Descending Washington Center
03:44PM 38.4275 -75.5175 133° Southeast 147 169 5,100 -1,260 Descending Washington Center
03:44PM 38.4003 -75.4858 138° Southeast 141 162 4,100 -1,080 Descending Washington Center
03:45PM 38.3753 -75.4514 133° Southeast 133 153 3,100 -600 Descending Washington Center
03:46PM 38.3606 -75.4089 114° Southeast 123 142 2,900 -60 Descending Washington Center
03:47PM 38.3439 -75.3719 120° Southeast 125 144 3,000  Climbing Washington Center
03:48PM 38.3250 -75.3297 120° Southeast 134 154 3,000  Level Washington Center
03:50PM 38.2917 -75.3114 157° South 124 143 3,000 -60 Level Washington Center
03:51PM 38.2603 -75.3114 180° South 127 146 2,900 -420 Descending Washington Center
03:52PM 38.2458 -75.3458 242° Southwest 112 129 2,200 -480 Descending Washington Center
03:53PM 38.2583 -75.3750 299° West 89 102 2,000 -120 Descending Washington Center
03:54PM 38.2772 -75.4014 312° West 94 108 2,000 -300 Level Washington Center
03:55PM 38.2897 -75.4250 304° West 94 108 1,400 -480 Descending Washington Center
03:56PM 38.3064 -75.4542 306° West 87 100 1,000 -360 Descending Washington Center
03:57PM 38.3211 -75.4778 308° West 84 97 700 -60 Descending Washington Center
03:59PM 38.3544 -75.5281 310° West 73 84 900 240 Climbing Washington Center
04:00PM 38.3650 -75.5467 306° West 61 70 1,700 660 Climbing Washington Center
04:01PM 38.3775 -75.5653 311° West 69 79 2,400 720 Climbing Washington Center
04:02PM 38.3942 -75.5864 315° West 85 98 3,200 720 Climbing Washington Center
04:03PM 38.4067 -75.6022 315° West 67 77 4,000 600 Climbing Washington Center
04:04PM 38.4233 -75.6183 323° Northwest 87 100 4,400 480 Climbing Washington Center
04:05PM 38.4442 -75.6289 338° Northwest 77 89 5,000 540 Climbing Washington Center
04:06PM 38.4631 -75.6419 332° Northwest 76 87 5,500 480 Climbing Washington Center
04:07PM 38.4817 -75.6553 331° Northwest 75 86 6,000 240 Climbing Washington Center
04:08PM 38.5025 -75.6739 325° Northwest 97 112 6,100 -60 Climbing Washington Center
04:09PM 38.5256 -75.6953 324° Northwest 106 122 5,900 -60 Descending Washington Center
04:10PM 38.5483 -75.7111 331° Northwest 94 108 6,000  Climbing Washington Center
04:12PM 38.5833 -75.7500 319° Northwest 98 113 6,000  Level Potomac TRACON
04:13PM 38.6167 -75.7667 339° North 94 108 6,000  Level Potomac TRACON
04:14PM 38.6333 -75.7833 322° Northwest 97 112 6,000  Level Potomac TRACON
04:15PM 38.6667 -75.8000 339° North 97 112 6,000  Level Potomac TRACON
04:16PM 38.6833 -75.8167 322° Northwest 94 108 6,000 -60 Level Potomac TRACON
04:17PM 38.7000 -75.8333 322° Northwest 96 110 5,900 -60 Descending Potomac TRACON
04:18PM 38.7333 -75.8500 339° North 94 108 5,900  Level Potomac TRACON
04:19PM 38.7500 -75.8667 322° Northwest 89 102 5,900 -540 Level Potomac TRACON
04:20PM 38.7667 -75.8833 322° Northwest 107 123 4,900 -1,080 Descending Potomac TRACON
04:21PM 38.8000 -75.9000 339° North 116 133 3,800 -960 Descending Potomac TRACON
04:22PM 38.8333 -75.9333 322° Northwest 110 127 3,000 -420 Descending Potomac TRACON
04:23PM 38.8500 -75.9500 322° Northwest 88 101 3,000 -60 Level Potomac TRACON
04:24PM 38.8667 -75.9667 322° Northwest 80 92 2,900  Descending Potomac TRACON
04:25PM 38.8833 -75.9833 322° Northwest 89 102 3,000  Climbing Potomac TRACON
04:26PM 38.9000 -76.0000 322° Northwest 76 87 3,000  Level Potomac TRACON
04:27PM 38.9167 -76.0167 322° Northwest 86 99 3,000  Level Potomac TRACON
04:28PM 38.9333 -76.0333 322° Northwest 86 99 3,100  Climbing Potomac TRACON
04:29PM 38.9667 -76.0500 339° North 99 114 3,000 -120 Descending Potomac TRACON
04:30PM 38.9833 -76.0667 322° Northwest 87 100 2,900  Descending Potomac TRACON
04:31PM 39.0000 -76.0833 322° Northwest 98 113 3,100  Climbing Potomac TRACON
04:32PM 39.0333 -76.1000 339° North 105 121 3,000 -60 Descending Potomac TRACON
04:33PM 39.0500 -76.1167 322° Northwest 101 116 3,000  Level Potomac TRACON
04:34PM 39.0833 -76.1333 339° North 99 114 3,000  Level Potomac TRACON
04:35PM 39.1000 -76.1500 322° Northwest 89 102 3,100  Climbing Potomac TRACON
04:36PM 39.1167 -76.1667 322° Northwest 100 115 3,000 -360 Descending Potomac TRACON
04:37PM 39.1500 -76.1833 339° North 108 124 2,400 -540 Descending Potomac TRACON
04:38PM 39.1667 -76.2167 303° West 103 119 2,000 -240 Descending Potomac TRACON
04:39PM 39.1667 -76.2333 270° West 97 112 2,000  Level Potomac TRACON
04:40PM 39.1500 -76.2167 142° Southeast 112 129 2,000  Level Potomac TRACON
04:41PM 39.1167 -76.1833 142° Southeast 123 142 2,100  Climbing Potomac TRACON
04:42PM 39.1167 -76.1500 90° East 121 139 2,100 -60 Level Potomac TRACON
04:43PM 39.1333 -76.1667 322° Northwest 97 112 2,000  Descending Potomac TRACON
04:44PM 39.1500 -76.2000 303° West 97 112 2,100  Climbing Potomac TRACON
04:45PM 39.1667 -76.2167 322° Northwest 92 106 2,000  Descending Potomac TRACON
04:46PM 39.2000 -76.2500 322° Northwest 95 109 2,200 60 Climbing Potomac TRACON
04:47PM 39.2167 -76.2667 322° Northwest 96 110 2,200  Level Potomac TRACON
04:48PM 39.2333 -76.3000 303° West 99 114 2,200 -180 Level Potomac TRACON
04:49PM 39.2500 -76.3167 322° Northwest 101 116 1,900 -360 Descending Potomac TRACON
04:50PM 39.2667 -76.3500 303° West 91 105 1,500 -540 Descending Potomac TRACON
04:51PM 39.2833 -76.3667 322° Northwest 93 107 900 -540 Descending Potomac TRACON
04:52PM 39.3000 -76.3833 322° Northwest 93 107 500 -420 Descending Potomac TRACON
04:54PM 39.3167 -76.4000 322° Northwest  Level FlightAware Approximate
05:01PM 39.3257 -76.4138 322° Northwest  Level Estimated
05:02PM 39.3257 -76.4138 322° Northwest  Level Estimated
05:03PM 39.3257 -76.4138 322° Northwest  Level Estimated
05:04PM 39.3257 -76.4138 322° Northwest  Level Estimated